createdAt,value
2023-12-07T00:00:05.579Z,86.65
2023-12-07T00:00:38.868Z,86.95
2023-12-07T00:01:31.833Z,86.72
2023-12-07T00:02:05.055Z,86.69
2023-12-07T00:02:38.040Z,86.93
2023-12-07T00:03:11.144Z,86.64
2023-12-07T00:03:44.279Z,86.80
2023-12-07T00:04:17.205Z,86.81
2023-12-07T00:04:50.159Z,86.72
2023-12-07T00:05:23.064Z,86.56
2023-12-07T00:05:56.025Z,86.70
2023-12-07T00:06:29.023Z,86.58
2023-12-07T00:07:01.964Z,86.65
2023-12-07T00:07:34.989Z,86.71
2023-12-07T00:08:10.474Z,86.69
2023-12-07T00:08:43.433Z,86.75
2023-12-07T00:09:16.507Z,86.73
2023-12-07T00:09:49.372Z,86.64
2023-12-07T00:10:22.349Z,86.63
2023-12-07T00:10:55.532Z,86.49
2023-12-07T00:11:28.622Z,86.42
2023-12-07T00:12:01.626Z,86.41
2023-12-07T00:12:34.552Z,86.37
2023-12-07T00:13:07.552Z,86.30
2023-12-07T00:13:41.209Z,86.38
2023-12-07T00:14:14.218Z,86.32
2023-12-07T00:14:47.340Z,86.34
2023-12-07T00:15:20.226Z,86.24
2023-12-07T00:15:53.157Z,86.15
2023-12-07T00:16:26.275Z,86.20
2023-12-07T00:16:59.202Z,86.01
2023-12-07T00:17:32.043Z,86.18
2023-12-07T00:18:05.269Z,86.32
2023-12-07T00:18:38.372Z,86.12
2023-12-07T00:19:11.795Z,86.27
2023-12-07T00:19:44.945Z,86.06
2023-12-07T00:20:18.039Z,86.10
2023-12-07T00:20:50.958Z,85.90
2023-12-07T00:21:24.127Z,85.98
2023-12-07T00:21:56.996Z,85.64
2023-12-07T00:22:30.063Z,86.00
2023-12-07T00:23:03.197Z,86.00
2023-12-07T00:23:36.117Z,86.01
2023-12-07T00:24:09.540Z,85.93
2023-12-07T00:24:42.657Z,86.00
2023-12-07T00:25:17.107Z,86.11
2023-12-07T00:25:50.325Z,85.96
2023-12-07T00:26:23.266Z,85.88
2023-12-07T00:26:57.288Z,85.90
2023-12-07T00:27:30.378Z,85.82
2023-12-07T00:28:05.093Z,85.67
2023-12-07T00:28:38.119Z,85.90
2023-12-07T00:29:11.269Z,85.91
2023-12-07T00:29:44.230Z,85.66
2023-12-07T00:30:17.191Z,85.69
2023-12-07T00:30:50.411Z,85.74
2023-12-07T00:31:23.325Z,85.73
2023-12-07T00:31:56.186Z,85.75
2023-12-07T00:32:29.446Z,85.51
2023-12-07T00:33:02.368Z,85.54
2023-12-07T00:33:35.477Z,85.46
2023-12-07T00:34:11.039Z,85.44
2023-12-07T00:34:44.465Z,85.49
2023-12-07T00:35:17.710Z,85.43
2023-12-07T00:35:50.740Z,85.41
2023-12-07T00:36:23.702Z,85.48
2023-12-07T00:36:56.621Z,85.35
2023-12-07T00:37:29.636Z,85.32
2023-12-07T00:38:03.276Z,85.06
2023-12-07T00:38:37.124Z,85.15
2023-12-07T00:39:10.346Z,85.14
2023-12-07T00:39:43.353Z,84.80
2023-12-07T00:40:16.772Z,84.76
2023-12-07T00:40:49.848Z,84.74
2023-12-07T00:41:25.936Z,84.91
2023-12-07T00:49:44.157Z,84.81
2023-12-07T00:50:17.411Z,84.85
2023-12-07T00:50:50.531Z,84.74
2023-12-07T00:51:23.364Z,84.48
2023-12-07T00:51:56.288Z,84.47
2023-12-07T00:52:29.578Z,84.68
2023-12-07T00:53:02.593Z,84.49
2023-12-07T00:53:35.576Z,84.33
2023-12-07T00:54:08.493Z,84.34
2023-12-07T00:54:41.468Z,84.68
2023-12-07T00:55:15.216Z,84.38
2023-12-07T00:55:48.357Z,84.40
2023-12-07T00:56:21.689Z,84.22
2023-12-07T00:56:57.594Z,84.31
2023-12-07T00:57:30.589Z,84.33
2023-12-07T00:58:03.510Z,84.18
2023-12-07T00:58:37.430Z,84.04
2023-12-07T00:59:10.585Z,83.82
2023-12-07T00:59:43.616Z,83.86
2023-12-07T01:00:16.864Z,83.83
2023-12-07T01:00:50.084Z,83.92
2023-12-07T01:01:23.125Z,83.68
2023-12-07T01:01:56.103Z,83.78
2023-12-07T01:02:29.088Z,83.40
2023-12-07T01:03:02.023Z,83.43
2023-12-07T01:03:35.170Z,83.14
2023-12-07T01:04:08.774Z,83.28
2023-12-07T01:04:41.998Z,83.33
2023-12-07T01:05:15.155Z,83.25
2023-12-07T01:05:48.199Z,83.07
2023-12-07T01:06:21.326Z,83.31
2023-12-07T01:06:54.612Z,83.18
2023-12-07T01:07:28.147Z,83.27
2023-12-07T01:08:01.191Z,83.16
2023-12-07T01:08:34.178Z,83.20
2023-12-07T01:09:07.475Z,82.80
2023-12-07T01:09:40.780Z,82.63
2023-12-07T01:10:13.887Z,82.83
2023-12-07T01:10:46.797Z,82.66
2023-12-07T01:11:20.383Z,82.82
2023-12-07T01:11:53.563Z,82.61
2023-12-07T01:12:26.864Z,82.48
2023-12-07T01:13:00.179Z,82.23
2023-12-07T01:13:33.289Z,82.32
2023-12-07T01:14:06.275Z,82.31
2023-12-07T01:14:39.369Z,82.54
2023-12-07T01:15:12.396Z,82.20
2023-12-07T01:15:45.404Z,82.19
2023-12-07T01:16:18.432Z,82.31
2023-12-07T01:16:51.324Z,82.27
2023-12-07T01:17:24.287Z,82.34
2023-12-07T01:17:57.167Z,82.38
2023-12-07T01:18:30.120Z,82.35
2023-12-07T01:19:03.357Z,82.12
2023-12-07T01:19:36.658Z,82.07
2023-12-07T01:20:13.555Z,81.97
2023-12-07T01:20:46.569Z,81.97
2023-12-07T01:21:19.703Z,81.96
2023-12-07T01:21:52.610Z,82.02
2023-12-07T01:22:25.931Z,82.10
2023-12-07T01:22:59.169Z,82.01
2023-12-07T01:23:33.449Z,82.05
2023-12-07T01:24:13.569Z,81.65
2023-12-07T01:24:49.658Z,81.62
2023-12-07T01:25:23.414Z,81.40
2023-12-07T01:25:57.185Z,81.45
2023-12-07T01:26:30.294Z,81.29
2023-12-07T01:27:03.298Z,81.27
2023-12-07T01:27:36.448Z,80.70
2023-12-07T01:28:10.515Z,81.09
2023-12-07T01:28:43.604Z,81.08
2023-12-07T01:29:16.591Z,80.86
2023-12-07T01:29:49.609Z,80.74
2023-12-07T01:30:22.934Z,80.87
2023-12-07T01:30:56.077Z,81.09
2023-12-07T01:31:29.645Z,80.99
2023-12-07T01:32:02.689Z,80.91
2023-12-07T01:32:36.253Z,81.41
2023-12-07T01:33:09.379Z,80.92
2023-12-07T01:33:42.428Z,80.91
2023-12-07T01:34:16.276Z,81.02
2023-12-07T01:34:49.596Z,80.71
2023-12-07T01:35:22.626Z,80.70
2023-12-07T01:35:55.753Z,80.86
2023-12-07T01:36:28.774Z,80.52
2023-12-07T01:37:02.070Z,80.53
2023-12-07T01:37:36.459Z,80.62
2023-12-07T01:38:09.608Z,80.43
2023-12-07T01:38:43.611Z,80.27
2023-12-07T01:39:17.174Z,79.97
2023-12-07T01:39:50.628Z,80.17
2023-12-07T01:40:23.890Z,79.94
2023-12-07T01:40:56.823Z,79.86
2023-12-07T01:41:30.216Z,79.72
2023-12-07T01:42:03.301Z,79.89
2023-12-07T01:42:36.340Z,79.67
2023-12-07T01:43:09.323Z,79.38
2023-12-07T01:43:48.462Z,79.25
2023-12-07T01:44:21.530Z,79.28
2023-12-07T01:44:54.375Z,79.49
2023-12-07T01:45:27.245Z,79.21
2023-12-07T01:46:00.925Z,79.66
2023-12-07T01:46:35.117Z,79.67
2023-12-07T01:47:09.275Z,79.37
2023-12-07T01:47:42.863Z,79.10
2023-12-07T01:48:16.061Z,79.14
2023-12-07T01:48:50.591Z,79.15
2023-12-07T01:49:23.935Z,78.77
2023-12-07T01:49:57.030Z,79.00
2023-12-07T01:50:30.558Z,78.93
2023-12-07T01:51:04.920Z,79.39
2023-12-07T01:51:38.443Z,79.05
2023-12-07T01:52:11.974Z,79.31
2023-12-07T01:52:48.873Z,79.21
2023-12-07T01:53:24.193Z,78.97
2023-12-07T01:53:57.186Z,78.77
2023-12-07T01:54:30.436Z,78.74
2023-12-07T01:55:04.138Z,78.36
2023-12-07T01:55:37.926Z,78.21
2023-12-07T01:56:11.682Z,78.40
2023-12-07T01:56:44.697Z,78.51
2023-12-07T01:57:17.725Z,78.55
2023-12-07T01:57:50.819Z,78.31
2023-12-07T01:58:23.826Z,78.67
2023-12-07T01:58:57.017Z,78.80
2023-12-07T01:59:29.866Z,78.47
2023-12-07T02:00:03.209Z,78.91
2023-12-07T02:00:37.721Z,78.54
2023-12-07T02:01:12.679Z,78.21
2023-12-07T02:01:46.232Z,78.34
2023-12-07T02:02:20.204Z,78.44
2023-12-07T02:02:53.581Z,78.46
2023-12-07T02:03:28.807Z,78.15
2023-12-07T02:04:02.106Z,78.53
2023-12-07T02:04:35.950Z,78.34
2023-12-07T02:05:09.298Z,78.10
2023-12-07T02:05:44.702Z,77.87
2023-12-07T02:06:17.976Z,78.36
2023-12-07T02:06:51.297Z,77.76
2023-12-07T02:07:24.772Z,78.06
2023-12-07T02:07:57.950Z,77.66
2023-12-07T02:08:31.543Z,77.81
2023-12-07T02:09:04.914Z,77.68
2023-12-07T02:09:38.875Z,77.87
2023-12-07T02:10:12.662Z,77.75
2023-12-07T02:10:47.299Z,77.89
2023-12-07T02:11:20.709Z,77.45
2023-12-07T02:11:55.269Z,77.29
2023-12-07T02:12:30.935Z,77.51
2023-12-07T02:13:04.836Z,77.32
2023-12-07T02:13:42.957Z,77.38
2023-12-07T02:14:16.150Z,77.22
2023-12-07T02:14:49.270Z,77.43
2023-12-07T02:15:22.790Z,77.29
2023-12-07T02:15:59.284Z,77.41
2023-12-07T02:16:40.761Z,77.11
2023-12-07T02:17:36.960Z,77.14
2023-12-07T02:18:33.740Z,77.50
2023-12-07T02:19:27.870Z,77.12
2023-12-07T02:20:11.545Z,77.13
2023-12-07T02:20:50.260Z,77.01
2023-12-07T02:21:31.641Z,76.69
2023-12-07T02:22:17.540Z,76.74
2023-12-07T02:23:14.376Z,76.16
2023-12-07T02:23:52.560Z,76.22
2023-12-07T02:24:28.414Z,76.51
2023-12-07T02:25:09.849Z,76.44
2023-12-07T02:25:55.918Z,76.13
2023-12-07T02:26:39.781Z,75.90
2023-12-07T02:27:12.853Z,76.35
2023-12-07T02:27:49.599Z,76.61
2023-12-07T02:28:23.229Z,76.60
2023-12-07T02:28:56.181Z,76.17
2023-12-07T02:29:29.313Z,76.49
2023-12-07T02:30:02.328Z,75.82
2023-12-07T02:30:35.491Z,75.91
2023-12-07T02:31:08.612Z,75.89
2023-12-07T02:31:41.746Z,75.88
2023-12-07T02:32:14.930Z,76.11
2023-12-07T02:32:48.166Z,76.32
2023-12-07T02:33:22.496Z,76.09
2023-12-07T02:33:56.675Z,75.79
2023-12-07T02:34:30.113Z,75.84
2023-12-07T02:35:03.576Z,75.75
2023-12-07T02:35:38.489Z,75.73
2023-12-07T02:36:16.192Z,75.94
2023-12-07T02:36:50.298Z,76.01
2023-12-07T02:37:28.737Z,75.56
2023-12-07T02:38:02.758Z,75.31
2023-12-07T02:38:37.495Z,75.83
2023-12-07T02:39:14.747Z,75.34
2023-12-07T02:39:49.497Z,75.70
2023-12-07T02:40:28.410Z,75.82
2023-12-07T02:41:02.975Z,75.57
2023-12-07T02:41:37.937Z,75.70
2023-12-07T02:42:11.937Z,75.26
2023-12-07T02:42:45.403Z,75.71
2023-12-07T02:43:19.077Z,74.77
2023-12-07T02:43:52.999Z,74.98
2023-12-07T02:44:26.686Z,74.90
2023-12-07T02:45:00.888Z,75.23
2023-12-07T02:45:34.354Z,75.35
2023-12-07T02:46:07.523Z,75.17
2023-12-07T02:46:40.843Z,74.83
2023-12-07T02:47:14.072Z,74.74
2023-12-07T02:47:47.507Z,74.43
2023-12-07T02:48:22.398Z,74.29
2023-12-07T02:48:55.713Z,74.26
2023-12-07T02:49:28.981Z,74.53
2023-12-07T02:50:02.039Z,74.15
2023-12-07T02:50:35.281Z,74.38
2023-12-07T02:51:08.476Z,74.09
2023-12-07T02:51:41.575Z,74.05
2023-12-07T02:52:15.110Z,74.36
2023-12-07T02:52:48.449Z,73.90
2023-12-07T02:53:21.627Z,73.82
2023-12-07T02:53:54.727Z,74.11
2023-12-07T02:54:28.012Z,73.93
2023-12-07T02:55:01.508Z,74.29
2023-12-07T02:55:34.746Z,74.02
2023-12-07T02:56:08.498Z,74.27
2023-12-07T02:56:41.593Z,74.13
2023-12-07T02:57:15.869Z,74.06
2023-12-07T02:57:49.063Z,74.14
2023-12-07T02:58:22.137Z,74.12
2023-12-07T02:58:55.177Z,74.13
2023-12-07T02:59:28.393Z,74.14
2023-12-07T03:00:01.460Z,74.24
2023-12-07T03:00:34.660Z,74.23
2023-12-07T03:01:08.055Z,74.31
2023-12-07T03:01:41.628Z,73.78
2023-12-07T03:02:14.792Z,74.43
2023-12-07T03:02:49.071Z,74.29
2023-12-07T03:03:22.295Z,74.40
2023-12-07T03:03:55.678Z,74.52
2023-12-07T03:04:28.883Z,74.31
2023-12-07T03:05:02.528Z,73.59
2023-12-07T03:05:35.805Z,73.50
2023-12-07T03:06:09.107Z,73.42
2023-12-07T03:06:42.273Z,73.52
2023-12-07T03:07:15.580Z,73.48
2023-12-07T03:07:48.809Z,73.83
2023-12-07T03:08:21.966Z,73.49
2023-12-07T03:08:54.873Z,73.33
2023-12-07T03:09:28.164Z,73.98
2023-12-07T03:10:01.542Z,73.91
2023-12-07T03:10:34.872Z,73.79
2023-12-07T03:11:10.316Z,73.19
2023-12-07T03:11:43.442Z,73.35
2023-12-07T03:12:16.706Z,73.27
2023-12-07T03:12:49.706Z,73.63
2023-12-07T03:13:22.887Z,73.64
2023-12-07T03:13:56.104Z,73.81
2023-12-07T03:14:29.224Z,73.80
2023-12-07T03:15:05.625Z,74.08
2023-12-07T03:15:38.776Z,73.86
2023-12-07T03:16:11.990Z,73.66
2023-12-07T03:16:44.985Z,73.70
2023-12-07T03:17:18.378Z,73.79
2023-12-07T03:17:51.909Z,73.74
2023-12-07T03:18:26.301Z,73.61
2023-12-07T03:18:59.558Z,73.89
2023-12-07T03:19:32.818Z,73.57
2023-12-07T03:20:06.806Z,73.79
2023-12-07T03:20:39.910Z,73.27
2023-12-07T03:21:13.389Z,73.22
2023-12-07T03:21:46.533Z,73.06
2023-12-07T03:22:20.092Z,72.80
2023-12-07T03:22:53.433Z,72.68
2023-12-07T03:23:26.609Z,73.24
2023-12-07T03:23:59.791Z,73.14
2023-12-07T03:24:33.268Z,72.96
2023-12-07T03:25:07.065Z,72.97
2023-12-07T03:25:40.738Z,72.91
2023-12-07T03:26:14.308Z,72.72
2023-12-07T03:26:47.413Z,72.88
2023-12-07T03:27:21.083Z,72.71
2023-12-07T03:27:54.429Z,72.70
2023-12-07T03:28:27.529Z,72.86
2023-12-07T03:29:01.145Z,72.64
2023-12-07T03:29:34.307Z,72.91
2023-12-07T03:30:07.402Z,72.86
2023-12-07T03:30:40.536Z,72.86
2023-12-07T03:31:13.817Z,72.98
2023-12-07T03:31:47.135Z,73.19
2023-12-07T03:32:20.280Z,73.08
2023-12-07T03:32:53.722Z,72.82
2023-12-07T03:33:27.415Z,73.01
2023-12-07T03:34:02.421Z,73.09
2023-12-07T03:34:35.725Z,73.27
2023-12-07T03:35:08.932Z,72.86
2023-12-07T03:35:42.290Z,72.44
2023-12-07T03:36:15.444Z,72.68
2023-12-07T03:36:49.422Z,72.69
2023-12-07T03:37:22.593Z,72.35
2023-12-07T03:37:55.710Z,72.45
2023-12-07T03:38:28.749Z,72.33
2023-12-07T03:39:01.892Z,72.57
2023-12-07T03:39:35.139Z,72.42
2023-12-07T03:40:10.208Z,72.47
2023-12-07T03:40:43.469Z,72.68
2023-12-07T03:41:16.922Z,72.72
2023-12-07T03:41:50.534Z,72.66
2023-12-07T03:42:49.694Z,72.71
2023-12-07T03:43:18.763Z,72.39
2023-12-07T03:43:51.925Z,72.78
2023-12-07T03:44:25.112Z,73.08
2023-12-07T03:44:58.384Z,72.55
2023-12-07T03:45:31.665Z,72.50
2023-12-07T03:46:08.879Z,72.63
2023-12-07T03:46:42.452Z,72.33
2023-12-07T03:47:15.695Z,72.33
2023-12-07T03:47:48.755Z,72.61
2023-12-07T03:48:23.123Z,72.37
2023-12-07T03:48:56.348Z,72.43
2023-12-07T03:49:29.753Z,72.64
2023-12-07T03:50:02.885Z,72.12
2023-12-07T03:50:35.986Z,72.32
2023-12-07T03:51:09.067Z,72.34
2023-12-07T03:51:42.257Z,72.46
2023-12-07T03:52:15.480Z,72.33
2023-12-07T03:52:48.743Z,72.23
2023-12-07T03:53:21.911Z,72.75
2023-12-07T03:53:57.675Z,72.58
2023-12-07T03:54:30.776Z,72.37
2023-12-07T03:55:04.169Z,72.42
2023-12-07T03:55:38.117Z,72.33
2023-12-07T03:56:11.669Z,72.24
2023-12-07T03:56:44.751Z,72.30
2023-12-07T03:57:17.904Z,72.16
2023-12-07T03:57:50.919Z,72.34
2023-12-07T03:58:24.177Z,72.34
2023-12-07T03:58:58.214Z,72.44
2023-12-07T03:59:31.380Z,72.48
2023-12-07T04:00:08.319Z,72.44
2023-12-07T04:00:41.698Z,72.29
2023-12-07T04:01:14.936Z,72.37
2023-12-07T04:01:48.259Z,71.89
2023-12-07T04:02:21.959Z,72.34
2023-12-07T04:02:55.455Z,71.96
2023-12-07T04:03:28.688Z,72.34
2023-12-07T04:04:02.015Z,71.89
2023-12-07T04:04:35.380Z,71.97
2023-12-07T04:05:08.635Z,72.02
2023-12-07T04:05:41.947Z,71.96
2023-12-07T04:06:15.933Z,72.11
2023-12-07T04:06:49.554Z,72.21
2023-12-07T04:07:25.221Z,71.92
2023-12-07T04:07:58.497Z,72.03
2023-12-07T04:08:31.685Z,72.13
2023-12-07T04:09:06.362Z,71.75
2023-12-07T04:09:39.657Z,72.14
2023-12-07T04:10:13.101Z,72.07
2023-12-07T04:10:46.719Z,72.14
2023-12-07T04:11:20.390Z,72.18
2023-12-07T04:11:53.421Z,72.36
2023-12-07T04:12:26.907Z,71.92
2023-12-07T04:13:00.156Z,72.09
2023-12-07T04:13:33.500Z,72.18
2023-12-07T04:14:06.695Z,72.04
2023-12-07T04:14:39.768Z,71.91
2023-12-07T04:15:18.500Z,72.04
2023-12-07T04:15:52.815Z,72.14
2023-12-07T04:16:27.148Z,72.22
2023-12-07T04:17:00.466Z,72.21
2023-12-07T04:17:33.807Z,72.12
2023-12-07T04:18:07.015Z,72.17
2023-12-07T04:18:40.310Z,72.17
2023-12-07T04:19:13.564Z,72.10
2023-12-07T04:19:47.065Z,72.34
2023-12-07T04:20:20.281Z,72.14
2023-12-07T04:20:53.496Z,72.11
2023-12-07T04:21:26.659Z,71.94
2023-12-07T04:21:59.665Z,72.17
2023-12-07T04:22:33.220Z,71.92
2023-12-07T04:23:07.479Z,72.29
2023-12-07T04:23:40.515Z,72.21
2023-12-07T04:24:13.730Z,72.09
2023-12-07T04:24:46.776Z,72.42
2023-12-07T04:25:20.498Z,72.38
2023-12-07T04:25:54.077Z,72.39
2023-12-07T04:26:27.247Z,72.44
2023-12-07T04:27:00.469Z,72.48
2023-12-07T04:27:35.126Z,72.47
2023-12-07T04:28:08.476Z,72.57
2023-12-07T04:28:41.728Z,72.41
2023-12-07T04:29:14.934Z,72.40
2023-12-07T04:29:47.915Z,72.65
2023-12-07T04:30:21.087Z,72.64
2023-12-07T04:30:54.301Z,72.77
2023-12-07T04:31:27.535Z,72.70
2023-12-07T04:32:01.142Z,72.60
2023-12-07T04:32:34.400Z,72.77
2023-12-07T04:33:07.840Z,72.48
2023-12-07T04:33:41.308Z,72.71
2023-12-07T04:34:14.467Z,72.64
2023-12-07T04:34:47.600Z,72.43
2023-12-07T04:35:21.133Z,72.36
2023-12-07T04:35:54.261Z,72.85
2023-12-07T04:36:27.405Z,72.67
2023-12-07T04:37:00.445Z,72.61
2023-12-07T04:37:33.601Z,72.56
2023-12-07T04:38:06.734Z,72.19
2023-12-07T04:38:39.886Z,72.52
2023-12-07T04:39:13.452Z,72.49
2023-12-07T04:39:46.619Z,72.49
2023-12-07T04:40:19.883Z,72.38
2023-12-07T04:40:53.008Z,72.14
2023-12-07T04:41:26.157Z,72.45
2023-12-07T04:42:00.397Z,72.42
2023-12-07T04:42:33.454Z,72.76
2023-12-07T04:43:06.937Z,72.67
2023-12-07T04:43:39.983Z,72.67
2023-12-07T04:44:13.262Z,72.79
2023-12-07T04:44:46.561Z,72.81
2023-12-07T04:45:19.748Z,72.77
2023-12-07T04:45:53.453Z,72.70
2023-12-07T04:46:26.753Z,72.61
2023-12-07T04:46:59.892Z,72.72
2023-12-07T04:47:34.201Z,72.91
2023-12-07T04:48:07.533Z,72.81
2023-12-07T04:48:41.498Z,72.83
2023-12-07T04:49:14.756Z,72.82
2023-12-07T04:49:48.106Z,72.88
2023-12-07T04:50:22.101Z,72.91
2023-12-07T04:50:55.190Z,72.73
2023-12-07T04:51:28.200Z,72.78
2023-12-07T04:52:01.256Z,72.63
2023-12-07T04:52:35.590Z,72.88
2023-12-07T04:53:09.987Z,73.06
2023-12-07T04:53:43.201Z,72.96
2023-12-07T04:54:19.722Z,73.06
2023-12-07T04:54:53.501Z,73.02
2023-12-07T04:55:27.654Z,72.90
2023-12-07T04:56:01.025Z,73.31
2023-12-07T04:56:34.115Z,73.28
2023-12-07T04:57:07.862Z,73.20
2023-12-07T04:57:41.036Z,73.40
2023-12-07T04:58:14.869Z,73.50
2023-12-07T04:58:48.053Z,73.69
2023-12-07T04:59:20.996Z,73.32
2023-12-07T04:59:54.233Z,73.17
2023-12-07T05:00:28.531Z,73.51
2023-12-07T05:01:02.350Z,73.60
2023-12-07T05:01:37.545Z,73.71
2023-12-07T05:02:10.758Z,73.59
2023-12-07T05:02:44.063Z,73.19
2023-12-07T05:03:17.576Z,73.39
2023-12-07T05:03:50.679Z,73.36
2023-12-07T05:04:23.779Z,73.43
2023-12-07T05:04:57.068Z,73.43
2023-12-07T05:05:30.250Z,73.46
2023-12-07T05:06:03.485Z,73.64
2023-12-07T05:06:36.912Z,73.39
2023-12-07T05:07:10.436Z,73.41
2023-12-07T05:07:43.733Z,73.47
2023-12-07T05:08:17.326Z,73.60
2023-12-07T05:08:50.909Z,73.40
2023-12-07T05:09:24.017Z,73.65
2023-12-07T05:09:57.131Z,73.72
2023-12-07T05:10:30.479Z,73.55
2023-12-07T05:11:03.678Z,73.43
2023-12-07T05:11:37.510Z,73.51
2023-12-07T05:12:10.588Z,73.57
2023-12-07T05:12:43.528Z,73.69
2023-12-07T05:13:16.659Z,73.67
2023-12-07T05:13:49.948Z,73.75
2023-12-07T05:14:24.223Z,73.77
2023-12-07T05:14:57.370Z,73.81
2023-12-07T05:15:30.518Z,73.90
2023-12-07T05:16:04.417Z,73.84
2023-12-07T05:16:37.719Z,74.01
2023-12-07T05:17:10.932Z,73.69
2023-12-07T05:17:44.311Z,73.87
2023-12-07T05:18:17.986Z,73.88
2023-12-07T05:18:51.156Z,73.94
2023-12-07T05:19:25.021Z,74.15
2023-12-07T05:19:58.198Z,74.10
2023-12-07T05:20:31.806Z,73.91
2023-12-07T05:21:05.862Z,73.88
2023-12-07T05:21:39.648Z,74.16
2023-12-07T05:22:12.790Z,74.05
2023-12-07T05:22:45.952Z,74.06
2023-12-07T05:23:19.206Z,74.23
2023-12-07T05:23:52.503Z,74.13
2023-12-07T05:24:25.833Z,74.19
2023-12-07T05:24:58.932Z,73.95
2023-12-07T05:25:33.675Z,74.35
2023-12-07T05:26:09.348Z,74.14
2023-12-07T05:26:49.885Z,74.42
2023-12-07T05:27:23.219Z,74.19
2023-12-07T05:27:56.353Z,74.39
2023-12-07T05:28:29.416Z,74.42
2023-12-07T05:29:03.302Z,74.51
2023-12-07T05:29:39.559Z,74.44
2023-12-07T05:30:14.142Z,74.32
2023-12-07T05:30:47.951Z,74.56
2023-12-07T05:31:21.152Z,74.53
2023-12-07T05:31:54.205Z,74.75
2023-12-07T05:32:27.533Z,74.46
2023-12-07T05:33:02.074Z,74.35
2023-12-07T05:33:35.583Z,74.31
2023-12-07T05:34:09.245Z,74.44
2023-12-07T05:34:43.312Z,74.57
2023-12-07T05:35:16.541Z,74.55
2023-12-07T05:35:49.748Z,74.33
2023-12-07T05:36:23.027Z,74.23
2023-12-07T05:36:56.207Z,74.44
2023-12-07T05:37:29.578Z,74.42
2023-12-07T05:38:02.871Z,74.37
2023-12-07T05:38:36.079Z,74.45
2023-12-07T05:39:09.224Z,74.57
2023-12-07T05:39:42.272Z,74.45
2023-12-07T05:40:15.456Z,74.74
2023-12-07T05:40:48.546Z,74.70
2023-12-07T05:41:21.543Z,74.73
2023-12-07T05:41:54.625Z,74.88
2023-12-07T05:42:27.780Z,74.87
2023-12-07T05:43:01.069Z,74.88
2023-12-07T05:43:35.110Z,74.71
2023-12-07T05:44:10.376Z,74.81
2023-12-07T05:44:43.541Z,75.14
2023-12-07T05:45:17.266Z,75.13
2023-12-07T05:45:50.476Z,75.02
2023-12-07T05:46:23.489Z,74.99
2023-12-07T05:46:56.701Z,75.13
2023-12-07T05:47:29.871Z,75.26
2023-12-07T05:48:03.206Z,75.10
2023-12-07T05:48:36.531Z,75.21
2023-12-07T05:49:10.555Z,75.30
2023-12-07T05:49:44.037Z,75.23
2023-12-07T05:50:17.261Z,75.02
2023-12-07T05:50:50.792Z,75.22
2023-12-07T05:51:24.051Z,75.17
2023-12-07T05:51:58.427Z,75.42
2023-12-07T05:52:31.395Z,75.39
2023-12-07T05:53:04.621Z,75.28
2023-12-07T05:53:37.932Z,75.36
2023-12-07T05:54:11.523Z,75.44
2023-12-07T05:54:46.824Z,75.47
2023-12-07T05:55:19.907Z,75.54
2023-12-07T05:55:53.339Z,75.52
2023-12-07T05:56:26.548Z,75.34
2023-12-07T05:56:59.678Z,75.61
2023-12-07T05:57:32.786Z,75.85
2023-12-07T05:58:06.792Z,75.58
2023-12-07T05:58:39.981Z,75.96
2023-12-07T05:59:13.256Z,75.99
2023-12-07T05:59:46.533Z,75.84
2023-12-07T06:00:20.279Z,75.80
2023-12-07T06:00:53.720Z,75.78
2023-12-07T06:01:27.087Z,75.96
2023-12-07T06:02:00.433Z,75.96
2023-12-07T06:02:34.124Z,75.84
2023-12-07T06:03:07.266Z,75.64
2023-12-07T06:03:40.462Z,75.71
2023-12-07T06:04:14.142Z,75.85
2023-12-07T06:04:47.503Z,75.59
2023-12-07T06:05:20.714Z,75.52
2023-12-07T06:05:54.340Z,75.55
2023-12-07T06:06:27.592Z,75.65
2023-12-07T06:07:00.915Z,75.67
2023-12-07T06:07:34.150Z,75.51
2023-12-07T06:08:07.368Z,75.68
2023-12-07T06:08:41.747Z,75.50
2023-12-07T06:09:15.478Z,75.69
2023-12-07T06:09:48.608Z,75.44
2023-12-07T06:10:22.287Z,75.56
2023-12-07T06:10:55.322Z,75.77
2023-12-07T06:11:28.415Z,75.63
2023-12-07T06:12:01.412Z,75.78
2023-12-07T06:12:34.497Z,75.99
2023-12-07T06:13:09.024Z,75.83
2023-12-07T06:13:42.478Z,75.92
2023-12-07T06:14:15.649Z,75.78
2023-12-07T06:14:50.346Z,75.90
2023-12-07T06:15:23.871Z,76.05
2023-12-07T06:15:57.106Z,75.69
2023-12-07T06:16:30.280Z,75.82
2023-12-07T06:17:03.589Z,75.79
2023-12-07T06:17:36.848Z,75.86
2023-12-07T06:18:10.375Z,76.14
2023-12-07T06:18:43.716Z,75.70
2023-12-07T06:19:17.075Z,75.98
2023-12-07T06:19:50.295Z,75.89
2023-12-07T06:20:23.370Z,75.71
2023-12-07T06:20:56.395Z,75.85
2023-12-07T06:21:31.310Z,76.05
2023-12-07T06:22:04.662Z,75.82
2023-12-07T06:22:38.373Z,75.59
2023-12-07T06:23:14.056Z,75.95
2023-12-07T06:23:48.062Z,75.55
2023-12-07T06:24:24.591Z,75.95
2023-12-07T06:24:57.827Z,75.93
2023-12-07T06:25:30.967Z,75.75
2023-12-07T06:26:05.873Z,75.66
2023-12-07T06:26:39.036Z,75.84
2023-12-07T06:27:11.998Z,75.80
2023-12-07T06:27:45.630Z,75.81
2023-12-07T06:28:18.965Z,75.80
2023-12-07T06:28:53.804Z,75.67
2023-12-07T06:29:29.927Z,76.12
2023-12-07T06:30:03.495Z,75.88
2023-12-07T06:30:36.593Z,75.92
2023-12-07T06:31:09.965Z,76.13
2023-12-07T06:31:46.369Z,76.13
2023-12-07T06:32:19.462Z,76.11
2023-12-07T06:32:52.551Z,76.22
2023-12-07T06:33:25.888Z,76.27
2023-12-07T06:33:59.241Z,76.52
2023-12-07T06:34:33.295Z,76.28
2023-12-07T06:35:07.562Z,76.56
2023-12-07T06:35:40.697Z,76.72
2023-12-07T06:36:22.608Z,76.71
2023-12-07T06:36:55.884Z,77.01
2023-12-07T06:37:29.062Z,77.28
2023-12-07T06:38:03.177Z,77.09
2023-12-07T06:38:36.338Z,77.10
2023-12-07T06:39:09.596Z,77.33
2023-12-07T06:39:42.979Z,77.38
2023-12-07T06:40:16.211Z,77.63
2023-12-07T06:40:49.469Z,77.78
2023-12-07T06:41:22.942Z,78.09
2023-12-07T06:41:56.753Z,77.81
2023-12-07T06:42:29.930Z,77.70
2023-12-07T06:43:03.014Z,77.80
2023-12-07T06:43:36.185Z,77.64
2023-12-07T06:44:09.650Z,77.67
2023-12-07T06:44:44.913Z,77.68
2023-12-07T06:45:18.037Z,77.86
2023-12-07T06:45:51.191Z,77.81
2023-12-07T06:46:24.434Z,78.14
2023-12-07T06:46:57.550Z,78.07
2023-12-07T06:47:30.772Z,78.07
2023-12-07T06:48:04.598Z,77.80
2023-12-07T06:48:37.808Z,77.86
2023-12-07T06:49:11.214Z,78.09
2023-12-07T06:49:51.949Z,78.02
2023-12-07T06:50:26.228Z,77.95
2023-12-07T06:50:59.242Z,78.20
2023-12-07T06:51:35.090Z,77.94
2023-12-07T06:52:08.460Z,78.22
2023-12-07T06:52:41.930Z,77.92
2023-12-07T06:53:15.746Z,78.03
2023-12-07T06:53:49.194Z,78.32
2023-12-07T06:54:22.366Z,78.09
2023-12-07T06:54:55.884Z,78.23
2023-12-07T06:55:29.346Z,78.01
2023-12-07T06:56:02.591Z,78.15
2023-12-07T06:56:36.173Z,78.05
2023-12-07T06:57:09.282Z,78.13
2023-12-07T06:57:42.413Z,78.01
2023-12-07T06:58:15.693Z,77.94
2023-12-07T06:58:48.933Z,78.15
2023-12-07T06:59:22.269Z,78.16
2023-12-07T06:59:55.407Z,78.19
2023-12-07T07:00:28.517Z,78.32
2023-12-07T07:01:01.595Z,78.16
2023-12-07T07:01:34.909Z,78.28
2023-12-07T07:02:08.350Z,78.34
2023-12-07T07:02:41.637Z,78.62
2023-12-07T07:03:15.597Z,78.43
2023-12-07T07:03:48.711Z,78.77
2023-12-07T07:04:22.998Z,78.41
2023-12-07T07:04:56.394Z,78.77
2023-12-07T07:05:29.519Z,78.98
2023-12-07T07:06:02.779Z,79.09
2023-12-07T07:06:36.339Z,79.17
2023-12-07T07:07:11.626Z,78.93
2023-12-07T07:07:44.889Z,79.32
2023-12-07T07:08:19.358Z,79.36
2023-12-07T07:08:52.573Z,79.51
2023-12-07T07:09:26.379Z,79.22
2023-12-07T07:10:00.333Z,79.51
2023-12-07T07:10:34.628Z,79.62
2023-12-07T07:11:17.351Z,79.74
2023-12-07T07:11:50.532Z,79.56
2023-12-07T07:12:23.688Z,79.89
2023-12-07T07:13:01.880Z,79.99
2023-12-07T07:13:34.998Z,79.73
2023-12-07T07:14:07.902Z,80.00
2023-12-07T07:14:41.279Z,80.04
2023-12-07T07:15:14.312Z,80.21
2023-12-07T07:15:48.992Z,80.39
2023-12-07T07:16:22.097Z,80.06
2023-12-07T07:16:55.076Z,80.67
2023-12-07T07:17:30.110Z,80.58
2023-12-07T07:18:03.655Z,80.86
2023-12-07T07:18:39.570Z,81.02
2023-12-07T07:19:12.912Z,80.87
2023-12-07T07:19:46.185Z,80.93
2023-12-07T07:20:19.657Z,81.30
2023-12-07T07:20:52.803Z,81.16
2023-12-07T07:21:25.911Z,81.02
2023-12-07T07:21:59.011Z,81.46
2023-12-07T07:22:32.379Z,81.61
2023-12-07T07:23:05.649Z,81.44
2023-12-07T07:23:38.990Z,81.76